Time,TemperatureF,DewpointF,PressureIn,WindDirection,WindDirectionDegrees,WindSpeedMPH,WindSpeedGustMPH,Humidity,HourlyPrecipIn,Conditions,Clouds,dailyrainin,SoftwareType,DateUTC
2013-03-02 00:00:00,32.0,32.0,-100.00,NNW,330,6.0,-999.0,97,-99.99,,,-99.99,,2013-03-02 05:00:00,
2013-03-02 00:22:00,32.0,32.0,-100.00,NNW,330,6.0,-999.0,97,-99.99,,,-99.99,,2013-03-02 05:22:00,
2013-03-02 00:31:00,32.0,32.0,-100.00,NNW,330,6.0,-999.0,97,-99.99,,,-99.99,,2013-03-02 05:31:00,
2013-03-02 00:41:00,32.0,32.0,-100.00,NNW,330,6.0,-999.0,97,-99.99,,,-99.99,,2013-03-02 05:41:00,
2013-03-02 00:51:00,32.0,32.0,-100.00,NNW,330,6.0,-999.0,97,-99.99,,,-99.99,,2013-03-02 05:51:00,
2013-03-02 01:00:00,32.0,31.0,-100.00,NW,310,7.0,-999.0,96,-99.99,,,-99.99,,2013-03-02 06:00:00,
2013-03-02 01:21:00,32.0,31.0,-100.00,NW,310,7.0,-999.0,96,-99.99,,,-99.99,,2013-03-02 06:21:00,
2013-03-02 01:31:00,32.0,31.0,-100.00,NW,310,7.0,-999.0,96,-99.99,,,-99.99,,2013-03-02 06:31:00,
2013-03-02 01:41:00,32.0,31.0,-100.00,NW,310,7.0,-999.0,96,-99.99,,,-99.99,,2013-03-02 06:41:00,
2013-03-02 01:51:00,32.0,31.0,-100.00,NW,310,7.0,-999.0,96,-99.99,,,-99.99,,2013-03-02 06:51:00,
2013-03-02 02:00:00,32.0,30.0,-100.00,WNW,290,7.0,-999.0,92,-99.99,,,-99.99,,2013-03-02 07:00:00,
2013-03-02 02:21:00,32.0,30.0,-100.00,WNW,290,7.0,-999.0,92,-99.99,,,-99.99,,2013-03-02 07:21:00,
2013-03-02 02:31:00,32.0,30.0,-100.00,WNW,290,7.0,-999.0,92,-99.99,,,-99.99,,2013-03-02 07:31:00,
2013-03-02 02:41:00,32.0,30.0,-100.00,WNW,290,7.0,-999.0,92,-99.99,,,-99.99,,2013-03-02 07:41:00,
2013-03-02 02:51:00,32.0,30.0,-100.00,WNW,290,7.0,-999.0,92,-99.99,,,-99.99,,2013-03-02 07:51:00,
2013-03-02 03:00:00,32.0,29.0,-100.00,West,280,8.0,-999.0,89,-99.99,,,-99.99,,2013-03-02 08:00:00,
2013-03-02 03:21:00,32.0,29.0,-100.00,West,280,8.0,-999.0,89,-99.99,,,-99.99,,2013-03-02 08:21:00,
2013-03-02 03:31:00,32.0,29.0,-100.00,West,280,8.0,-999.0,89,-99.99,,,-99.99,,2013-03-02 08:31:00,
2013-03-02 03:42:00,32.0,29.0,-100.00,West,280,8.0,-999.0,89,-99.99,,,-99.99,,2013-03-02 08:42:00,
2013-03-02 03:52:00,32.0,29.0,-100.00,West,280,8.0,-999.0,89,-99.99,,,-99.99,,2013-03-02 08:52:00,
2013-03-02 04:00:00,31.0,29.0,-100.00,West,270,8.0,-999.0,92,-99.99,,,-99.99,,2013-03-02 09:00:00,
2013-03-02 04:21:00,31.0,29.0,-100.00,West,270,8.0,-999.0,92,-99.99,,,-99.99,,2013-03-02 09:21:00,
2013-03-02 04:31:00,31.0,29.0,-100.00,West,270,8.0,-999.0,92,-99.99,,,-99.99,,2013-03-02 09:31:00,
2013-03-02 04:42:00,31.0,29.0,-100.00,West,270,8.0,-999.0,92,-99.99,,,-99.99,,2013-03-02 09:42:00,
2013-03-02 04:51:00,31.0,29.0,-100.00,West,270,8.0,-999.0,92,-99.99,,,-99.99,,2013-03-02 09:51:00,
2013-03-02 05:00:00,32.0,29.0,-100.00,WNW,290,5.0,-999.0,90,-99.99,,,-99.99,,2013-03-02 10:00:00,
2013-03-02 05:21:00,32.0,29.0,-100.00,WNW,290,5.0,-999.0,90,-99.99,,,-99.99,,2013-03-02 10:21:00,
2013-03-02 05:31:00,32.0,29.0,-100.00,WNW,290,5.0,-999.0,90,-99.99,,,-99.99,,2013-03-02 10:31:00,
2013-03-02 05:41:00,32.0,29.0,-100.00,WNW,290,5.0,-999.0,90,-99.99,,,-99.99,,2013-03-02 10:41:00,
2013-03-02 05:51:00,32.0,29.0,-100.00,WNW,290,5.0,-999.0,90,-99.99,,,-99.99,,2013-03-02 10:51:00,
2013-03-02 06:00:00,32.0,30.0,-100.00,WNW,290,6.0,-999.0,90,-99.99,,,-99.99,,2013-03-02 11:00:00,
2013-03-02 06:21:00,32.0,30.0,-100.00,WNW,290,6.0,-999.0,90,-99.99,,,-99.99,,2013-03-02 11:21:00,
2013-03-02 06:31:00,32.0,30.0,-100.00,WNW,290,6.0,-999.0,90,-99.99,,,-99.99,,2013-03-02 11:31:00,
2013-03-02 06:41:00,32.0,30.0,-100.00,WNW,290,6.0,-999.0,90,-99.99,,,-99.99,,2013-03-02 11:41:00,
2013-03-02 06:52:00,32.0,30.0,-100.00,WNW,290,6.0,-999.0,90,-99.99,,,-99.99,,2013-03-02 11:52:00,
2013-03-02 07:00:00,33.0,28.0,-100.00,NNW,330,5.0,-999.0,84,-99.99,,,-99.99,,2013-03-02 12:00:00,
2013-03-02 07:21:00,33.0,28.0,-100.00,NNW,330,5.0,-999.0,84,-99.99,,,-99.99,,2013-03-02 12:21:00,
2013-03-02 07:32:00,33.0,28.0,-100.00,NNW,330,5.0,-999.0,84,-99.99,,,-99.99,,2013-03-02 12:32:00,
2013-03-02 07:42:00,33.0,28.0,-100.00,NNW,330,5.0,-999.0,84,-99.99,,,-99.99,,2013-03-02 12:42:00,
2013-03-02 07:52:00,33.0,28.0,-100.00,NNW,330,5.0,-999.0,84,-99.99,,,-99.99,,2013-03-02 12:52:00,
2013-03-02 08:00:00,34.0,26.0,-100.00,NNW,340,6.0,-999.0,74,-99.99,,,-99.99,,2013-03-02 13:00:00,
2013-03-02 08:21:00,34.0,26.0,-100.00,NNW,340,6.0,-999.0,74,-99.99,,,-99.99,,2013-03-02 13:21:00,
2013-03-02 08:31:00,34.0,26.0,-100.00,NNW,340,6.0,-999.0,74,-99.99,,,-99.99,,2013-03-02 13:31:00,
2013-03-02 08:41:00,34.0,26.0,-100.00,NNW,340,6.0,-999.0,74,-99.99,,,-99.99,,2013-03-02 13:41:00,
2013-03-02 08:52:00,34.0,26.0,-100.00,NNW,340,6.0,-999.0,74,-99.99,,,-99.99,,2013-03-02 13:52:00,
2013-03-02 09:00:00,35.0,25.0,-100.00,North,350,13.0,-999.0,66,-99.99,,,-99.99,,2013-03-02 14:00:00,
2013-03-02 09:21:00,35.0,25.0,-100.00,North,350,13.0,-999.0,66,-99.99,,,-99.99,,2013-03-02 14:21:00,
2013-03-02 09:31:00,35.0,25.0,-100.00,North,350,13.0,-999.0,66,-99.99,,,-99.99,,2013-03-02 14:31:00,
2013-03-02 09:41:00,35.0,25.0,-100.00,North,350,13.0,-999.0,66,-99.99,,,-99.99,,2013-03-02 14:41:00,
2013-03-02 09:52:00,35.0,25.0,-100.00,North,350,13.0,-999.0,66,-99.99,,,-99.99,,2013-03-02 14:52:00,
2013-03-02 10:00:00,36.0,25.0,-100.00,North,360,6.0,-999.0,64,-99.99,,,-99.99,,2013-03-02 15:00:00,
2013-03-02 10:21:00,36.0,25.0,-100.00,North,360,6.0,-999.0,64,-99.99,,,-99.99,,2013-03-02 15:21:00,
2013-03-02 10:31:00,36.0,25.0,-100.00,North,360,6.0,-999.0,64,-99.99,,,-99.99,,2013-03-02 15:31:00,
2013-03-02 10:41:00,36.0,25.0,-100.00,North,360,6.0,-999.0,64,-99.99,,,-99.99,,2013-03-02 15:41:00,
2013-03-02 10:51:00,36.0,25.0,-100.00,North,360,6.0,-999.0,64,-99.99,,,-99.99,,2013-03-02 15:51:00,
2013-03-02 11:00:00,34.0,25.0,-100.00,NNW,340,7.0,-999.0,69,-99.99,,,-99.99,,2013-03-02 16:00:00,
2013-03-02 11:21:00,34.0,25.0,-100.00,NNW,340,7.0,-999.0,69,-99.99,,,-99.99,,2013-03-02 16:21:00,
2013-03-02 11:31:00,34.0,25.0,-100.00,NNW,340,7.0,-999.0,69,-99.99,,,-99.99,,2013-03-02 16:31:00,
2013-03-02 11:41:00,34.0,25.0,-100.00,NNW,340,7.0,-999.0,69,-99.99,,,-99.99,,2013-03-02 16:41:00,
2013-03-02 11:51:00,34.0,25.0,-100.00,NNW,340,7.0,-999.0,69,-99.99,,,-99.99,,2013-03-02 16:51:00,
2013-03-02 12:00:00,34.0,24.0,-100.00,NNW,330,6.0,-999.0,68,-99.99,,,-99.99,,2013-03-02 17:00:00,
2013-03-02 12:21:00,34.0,24.0,-100.00,NNW,330,6.0,-999.0,68,-99.99,,,-99.99,,2013-03-02 17:21:00,
2013-03-02 12:31:00,34.0,24.0,-100.00,NNW,330,6.0,-999.0,68,-99.99,,,-99.99,,2013-03-02 17:31:00,
2013-03-02 12:41:00,34.0,24.0,-100.00,NNW,330,6.0,-999.0,68,-99.99,,,-99.99,,2013-03-02 17:41:00,
2013-03-02 12:52:00,34.0,24.0,-100.00,NNW,330,6.0,-999.0,68,-99.99,,,-99.99,,2013-03-02 17:52:00,
2013-03-02 13:00:00,34.0,24.0,-100.00,NW,310,7.0,-999.0,66,-99.99,,,-99.99,,2013-03-02 18:00:00,
2013-03-02 13:21:00,34.0,24.0,-100.00,NW,310,7.0,-999.0,66,-99.99,,,-99.99,,2013-03-02 18:21:00,
2013-03-02 13:31:00,34.0,24.0,-100.00,NW,310,7.0,-999.0,66,-99.99,,,-99.99,,2013-03-02 18:31:00,
2013-03-02 13:41:00,34.0,24.0,-100.00,NW,310,7.0,-999.0,66,-99.99,,,-99.99,,2013-03-02 18:41:00,
2013-03-02 13:51:00,34.0,24.0,-100.00,NW,310,7.0,-999.0,66,-99.99,,,-99.99,,2013-03-02 18:51:00,
2013-03-02 14:00:00,32.0,25.0,-100.00,WSW,240,8.0,-999.0,75,-99.99,,,-99.99,,2013-03-02 19:00:00,
2013-03-02 14:21:00,32.0,25.0,-100.00,WSW,240,8.0,-999.0,75,-99.99,,,-99.99,,2013-03-02 19:21:00,
2013-03-02 14:31:00,32.0,25.0,-100.00,WSW,240,8.0,-999.0,75,-99.99,,,-99.99,,2013-03-02 19:31:00,
2013-03-02 14:42:00,32.0,25.0,-100.00,WSW,240,8.0,-999.0,75,-99.99,,,-99.99,,2013-03-02 19:42:00,
2013-03-02 14:51:00,32.0,25.0,-100.00,WSW,240,8.0,-999.0,75,-99.99,,,-99.99,,2013-03-02 19:51:00,
2013-03-02 15:00:00,32.0,25.0,-100.00,West,270,10.0,-999.0,75,-99.99,,,-99.99,,2013-03-02 20:00:00,
2013-03-02 15:21:00,32.0,25.0,-100.00,West,270,10.0,-999.0,75,-99.99,,,-99.99,,2013-03-02 20:21:00,
2013-03-02 15:31:00,32.0,25.0,-100.00,West,270,10.0,-999.0,75,-99.99,,,-99.99,,2013-03-02 20:31:00,
2013-03-02 15:41:00,32.0,25.0,-100.00,West,270,10.0,-999.0,75,-99.99,,,-99.99,,2013-03-02 20:41:00,
2013-03-02 15:52:00,32.0,25.0,-100.00,West,270,10.0,-999.0,75,-99.99,,,-99.99,,2013-03-02 20:52:00,
2013-03-02 16:00:00,31.0,26.0,-100.00,WNW,290,7.0,-999.0,80,-99.99,,,-99.99,,2013-03-02 21:00:00,
2013-03-02 16:21:00,31.0,26.0,-100.00,WNW,290,7.0,-999.0,80,-99.99,,,-99.99,,2013-03-02 21:21:00,
2013-03-02 16:31:00,31.0,26.0,-100.00,WNW,290,7.0,-999.0,80,-99.99,,,-99.99,,2013-03-02 21:31:00,
2013-03-02 16:41:00,31.0,26.0,-100.00,WNW,290,7.0,-999.0,80,-99.99,,,-99.99,,2013-03-02 21:41:00,
2013-03-02 16:51:00,31.0,26.0,-100.00,WNW,290,7.0,-999.0,80,-99.99,,,-99.99,,2013-03-02 21:51:00,
2013-03-02 17:00:00,29.0,27.0,-100.00,West,270,6.0,-999.0,88,-99.99,,,-99.99,,2013-03-02 22:00:00,
2013-03-02 17:21:00,29.0,27.0,-100.00,West,270,6.0,-999.0,88,-99.99,,,-99.99,,2013-03-02 22:21:00,
2013-03-02 17:31:00,29.0,27.0,-100.00,West,270,6.0,-999.0,88,-99.99,,,-99.99,,2013-03-02 22:31:00,
2013-03-02 17:41:00,29.0,27.0,-100.00,West,270,6.0,-999.0,88,-99.99,,,-99.99,,2013-03-02 22:41:00,
2013-03-02 17:51:00,29.0,27.0,-100.00,West,270,6.0,-999.0,88,-99.99,,,-99.99,,2013-03-02 22:51:00,
2013-03-02 18:00:00,28.0,26.0,-100.00,West,260,8.0,-999.0,90,-99.99,,,-99.99,,2013-03-02 23:00:00,
2013-03-02 18:21:00,28.0,26.0,-100.00,West,260,8.0,-999.0,90,-99.99,,,-99.99,,2013-03-02 23:21:00,
2013-03-02 18:31:00,28.0,26.0,-100.00,West,260,8.0,-999.0,90,-99.99,,,-99.99,,2013-03-02 23:31:00,
2013-03-02 18:41:00,28.0,26.0,-100.00,West,260,8.0,-999.0,90,-99.99,,,-99.99,,2013-03-02 23:41:00,
2013-03-02 18:51:00,28.0,26.0,-100.00,West,260,8.0,-999.0,90,-99.99,,,-99.99,,2013-03-02 23:51:00,
2013-03-02 19:00:00,28.0,25.0,-100.00,WSW,250,11.0,-999.0,90,-99.99,,,-99.99,,2013-03-03 00:00:00,
2013-03-02 19:22:00,28.0,25.0,-100.00,WSW,250,11.0,-999.0,90,-99.99,,,-99.99,,2013-03-03 00:22:00,
2013-03-02 19:31:00,28.0,25.0,-100.00,WSW,250,11.0,-999.0,90,-99.99,,,-99.99,,2013-03-03 00:31:00,
2013-03-02 19:42:00,28.0,25.0,-100.00,WSW,250,11.0,-999.0,90,-99.99,,,-99.99,,2013-03-03 00:42:00,
2013-03-02 19:52:00,28.0,25.0,-100.00,WSW,250,11.0,-999.0,90,-99.99,,,-99.99,,2013-03-03 00:52:00,
2013-03-02 20:00:00,27.0,25.0,-100.00,West,260,10.0,-999.0,90,-99.99,,,-99.99,,2013-03-03 01:00:00,
2013-03-02 20:21:00,27.0,25.0,-100.00,West,260,10.0,-999.0,90,-99.99,,,-99.99,,2013-03-03 01:21:00,
2013-03-02 20:31:00,27.0,25.0,-100.00,West,260,10.0,-999.0,90,-99.99,,,-99.99,,2013-03-03 01:31:00,
2013-03-02 20:41:00,27.0,25.0,-100.00,West,260,10.0,-999.0,90,-99.99,,,-99.99,,2013-03-03 01:41:00,
2013-03-02 20:51:00,27.0,25.0,-100.00,West,260,10.0,-999.0,90,-99.99,,,-99.99,,2013-03-03 01:51:00,
2013-03-02 21:00:00,26.0,24.0,-100.00,West,270,9.0,-999.0,92,-99.99,,,-99.99,,2013-03-03 02:00:00,
2013-03-02 21:21:00,26.0,24.0,-100.00,West,270,9.0,-999.0,92,-99.99,,,-99.99,,2013-03-03 02:21:00,
2013-03-02 21:31:00,26.0,24.0,-100.00,West,270,9.0,-999.0,92,-99.99,,,-99.99,,2013-03-03 02:31:00,
2013-03-02 21:41:00,26.0,24.0,-100.00,West,270,9.0,-999.0,92,-99.99,,,-99.99,,2013-03-03 02:41:00,
2013-03-02 21:52:00,26.0,24.0,-100.00,West,270,9.0,-999.0,92,-99.99,,,-99.99,,2013-03-03 02:52:00,
2013-03-02 22:00:00,26.0,24.0,-100.00,West,260,8.0,-999.0,94,-99.99,,,-99.99,,2013-03-03 03:00:00,
2013-03-02 22:21:00,26.0,24.0,-100.00,West,260,8.0,-999.0,94,-99.99,,,-99.99,,2013-03-03 03:21:00,
2013-03-02 22:31:00,26.0,24.0,-100.00,West,260,8.0,-999.0,94,-99.99,,,-99.99,,2013-03-03 03:31:00,
2013-03-02 22:41:00,26.0,24.0,-100.00,West,260,8.0,-999.0,94,-99.99,,,-99.99,,2013-03-03 03:41:00,
2013-03-02 22:51:00,26.0,24.0,-100.00,West,260,8.0,-999.0,94,-99.99,,,-99.99,,2013-03-03 03:51:00,
2013-03-02 23:00:00,26.0,24.0,-100.00,West,270,9.0,-999.0,92,-99.99,,,-99.99,,2013-03-03 04:00:00,
2013-03-02 23:21:00,26.0,24.0,-100.00,West,270,9.0,-999.0,92,-99.99,,,-99.99,,2013-03-03 04:21:00,
2013-03-02 23:31:00,26.0,24.0,-100.00,West,270,9.0,-999.0,92,-99.99,,,-99.99,,2013-03-03 04:31:00,
2013-03-02 23:41:00,26.0,24.0,-100.00,West,270,9.0,-999.0,92,-99.99,,,-99.99,,2013-03-03 04:41:00,
2013-03-02 23:51:00,26.0,24.0,-100.00,West,270,9.0,-999.0,92,-99.99,,,-99.99,,2013-03-03 04:51:00,